createdAt,value
2022-11-24T00:00:11.984Z,992.72
2022-11-24T00:01:11.986Z,992.69
2022-11-24T00:02:12.133Z,992.64
2022-11-24T00:03:12.081Z,992.70
2022-11-24T00:04:11.946Z,992.69
2022-11-24T00:05:11.925Z,992.61
2022-11-24T00:06:11.915Z,992.64
2022-11-24T00:07:11.951Z,992.64
2022-11-24T00:08:11.880Z,992.63
2022-11-24T00:09:11.904Z,992.65
2022-11-24T00:10:11.854Z,992.65
2022-11-24T00:11:11.848Z,992.63
2022-11-24T00:12:11.848Z,992.63
2022-11-24T00:13:11.879Z,992.68
2022-11-24T00:14:11.802Z,992.63
2022-11-24T00:15:11.796Z,992.65
2022-11-24T00:16:11.828Z,992.62
2022-11-24T00:17:11.811Z,992.66
2022-11-24T00:18:11.753Z,992.70
2022-11-24T00:19:15.800Z,992.76
2022-11-24T00:20:12.724Z,992.74
2022-11-24T00:21:11.723Z,992.80
2022-11-24T00:22:11.712Z,992.80
2022-11-24T00:23:11.750Z,992.77
2022-11-24T00:24:11.693Z,992.79
2022-11-24T00:25:11.662Z,992.74
2022-11-24T00:26:11.650Z,992.73
2022-11-24T00:27:11.652Z,992.74
2022-11-24T00:28:11.681Z,992.71
2022-11-24T00:29:11.638Z,992.69
2022-11-24T00:30:11.592Z,992.71
2022-11-24T00:31:16.792Z,992.73
2022-11-24T00:32:12.580Z,992.72
2022-11-24T00:33:11.574Z,992.71
2022-11-24T00:34:11.556Z,992.76
2022-11-24T00:35:11.530Z,992.76
2022-11-24T00:36:11.521Z,992.78
2022-11-24T00:37:11.518Z,992.74
2022-11-24T00:38:11.489Z,992.82
2022-11-24T00:39:11.497Z,992.79
2022-11-24T00:40:11.516Z,992.85
2022-11-24T00:41:11.458Z,992.85
2022-11-24T00:42:11.471Z,992.83
2022-11-24T00:43:11.438Z,992.92
2022-11-24T00:44:11.443Z,992.86
2022-11-24T00:45:14.239Z,992.88
2022-11-24T00:46:11.557Z,992.88
2022-11-24T00:47:11.537Z,992.90
2022-11-24T00:48:11.391Z,992.90
2022-11-24T00:49:11.378Z,992.90
2022-11-24T00:50:11.344Z,992.87
2022-11-24T00:51:11.343Z,992.94
2022-11-24T00:52:11.331Z,992.89
2022-11-24T00:53:11.304Z,992.92
2022-11-24T00:54:11.297Z,992.88
2022-11-24T00:55:11.292Z,992.93
2022-11-24T00:56:11.264Z,992.94
2022-11-24T00:57:11.329Z,992.95
2022-11-24T00:58:11.233Z,992.96
2022-11-24T00:59:11.276Z,992.97
2022-11-24T01:00:11.214Z,992.99
2022-11-24T01:01:11.564Z,992.99
2022-11-24T01:02:11.255Z,992.99
2022-11-24T01:03:11.171Z,993.00
2022-11-24T01:04:11.207Z,993.03
2022-11-24T01:05:11.146Z,993.03
2022-11-24T01:06:11.147Z,992.98
2022-11-24T01:07:11.188Z,993.01
2022-11-24T01:08:11.130Z,993.00
2022-11-24T01:09:11.107Z,992.99
2022-11-24T01:10:11.074Z,992.98
2022-11-24T01:11:11.079Z,993.03
2022-11-24T01:12:11.060Z,993.02
2022-11-24T01:13:11.037Z,993.00
2022-11-24T01:14:11.031Z,993.05
2022-11-24T01:15:11.010Z,993.10
2022-11-24T01:16:11.039Z,993.06
2022-11-24T01:17:11.229Z,993.13
2022-11-24T01:18:10.978Z,993.13
2022-11-24T01:19:10.963Z,993.10
2022-11-24T01:20:10.973Z,993.12
2022-11-24T01:21:11.029Z,993.13
2022-11-24T01:22:10.928Z,993.12
2022-11-24T01:23:10.934Z,993.18
2022-11-24T01:24:10.916Z,993.18
2022-11-24T01:25:10.885Z,993.21
2022-11-24T01:26:10.892Z,993.23
2022-11-24T01:27:10.882Z,993.22
2022-11-24T01:28:10.865Z,993.26
2022-11-24T01:29:11.789Z,993.16
2022-11-24T01:30:10.830Z,993.23
2022-11-24T01:31:10.877Z,993.25
2022-11-24T01:32:10.815Z,993.32
2022-11-24T01:33:10.793Z,993.28
2022-11-24T01:34:10.766Z,993.28
2022-11-24T01:35:10.803Z,993.29
2022-11-24T01:36:10.750Z,993.32
2022-11-24T01:37:10.747Z,993.34
2022-11-24T01:38:10.723Z,993.37
2022-11-24T01:39:10.695Z,993.33
2022-11-24T01:40:10.694Z,993.37
2022-11-24T01:41:10.685Z,993.37
2022-11-24T01:42:10.708Z,993.38
2022-11-24T01:43:10.645Z,993.34
2022-11-24T01:44:10.648Z,993.32
2022-11-24T01:45:10.634Z,993.34
2022-11-24T01:46:10.690Z,993.34
2022-11-24T01:47:10.604Z,993.36
2022-11-24T01:48:10.594Z,993.33
2022-11-24T01:49:10.582Z,993.35
2022-11-24T01:50:10.561Z,993.35
2022-11-24T01:51:10.557Z,993.37
2022-11-24T01:52:10.549Z,993.38
2022-11-24T01:53:10.516Z,993.41
2022-11-24T01:54:10.536Z,993.47
2022-11-24T01:55:10.491Z,993.42
2022-11-24T01:56:10.522Z,993.45
2022-11-24T01:57:10.471Z,993.44
2022-11-24T01:58:10.461Z,993.44
2022-11-24T01:59:10.433Z,993.45
2022-11-24T02:00:10.430Z,993.43
2022-11-24T02:01:10.501Z,993.51
2022-11-24T02:02:10.461Z,993.49
2022-11-24T02:03:10.388Z,993.47
2022-11-24T02:04:10.382Z,993.48
2022-11-24T02:05:10.366Z,993.51
2022-11-24T02:06:10.367Z,993.51
2022-11-24T02:07:10.427Z,993.47
2022-11-24T02:08:10.332Z,993.45
2022-11-24T02:09:10.310Z,993.48
2022-11-24T02:10:10.317Z,993.49
2022-11-24T02:11:10.312Z,993.44
2022-11-24T02:12:10.291Z,993.48
2022-11-24T02:13:10.254Z,993.47
2022-11-24T02:14:10.249Z,993.47
2022-11-24T02:15:10.238Z,993.46
2022-11-24T02:16:10.300Z,993.43
2022-11-24T02:17:10.254Z,993.45
2022-11-24T02:18:10.196Z,993.45
2022-11-24T02:19:10.186Z,993.42
2022-11-24T02:20:10.184Z,993.45
2022-11-24T02:21:10.147Z,993.50
2022-11-24T02:22:10.165Z,993.47
2022-11-24T02:23:10.126Z,993.43
2022-11-24T02:24:10.162Z,993.46
2022-11-24T02:25:10.105Z,993.48
2022-11-24T02:26:10.117Z,993.47
2022-11-24T02:27:10.085Z,993.49
2022-11-24T02:28:10.074Z,993.50
2022-11-24T02:29:10.045Z,993.47
2022-11-24T02:30:10.044Z,993.51
2022-11-24T02:31:10.084Z,993.51
2022-11-24T02:32:10.024Z,993.52
2022-11-24T02:33:09.994Z,993.49
2022-11-24T02:34:09.996Z,993.52
2022-11-24T02:35:09.981Z,993.52
2022-11-24T02:36:09.985Z,993.56
2022-11-24T02:37:09.962Z,993.50
2022-11-24T02:38:09.942Z,993.60
2022-11-24T02:39:09.950Z,993.62
2022-11-24T02:40:09.927Z,993.61
2022-11-24T02:41:09.891Z,993.67
2022-11-24T02:42:09.902Z,993.66
2022-11-24T02:43:09.899Z,993.66
2022-11-24T02:44:09.891Z,993.69
2022-11-24T02:45:09.865Z,993.71
2022-11-24T02:46:09.874Z,993.69
2022-11-24T02:47:09.840Z,993.70
2022-11-24T02:48:09.812Z,993.68
2022-11-24T02:49:09.799Z,993.70
2022-11-24T02:50:09.780Z,993.73
2022-11-24T02:51:09.775Z,993.75
2022-11-24T02:52:09.779Z,993.77
2022-11-24T02:53:09.738Z,993.81
2022-11-24T02:54:09.740Z,993.80
2022-11-24T02:55:09.736Z,993.81
2022-11-24T02:56:09.737Z,993.81
2022-11-24T02:57:09.716Z,993.80
2022-11-24T02:58:09.718Z,993.78
2022-11-24T02:59:09.657Z,993.74
2022-11-24T03:00:09.656Z,993.80
2022-11-24T03:01:09.691Z,993.68
2022-11-24T03:02:09.646Z,993.76
2022-11-24T03:03:09.741Z,993.84
2022-11-24T03:04:09.605Z,993.77
2022-11-24T03:05:09.608Z,993.75
2022-11-24T03:06:09.596Z,993.78
2022-11-24T03:07:09.644Z,993.79
2022-11-24T03:08:09.551Z,993.80
2022-11-24T03:09:09.542Z,993.80
2022-11-24T03:10:09.559Z,993.77
2022-11-24T03:11:09.507Z,993.80
2022-11-24T03:12:09.582Z,993.81
2022-11-24T03:13:09.523Z,993.78
2022-11-24T03:14:09.509Z,993.83
2022-11-24T03:15:09.464Z,993.81
2022-11-24T03:16:09.500Z,993.84
2022-11-24T03:17:09.476Z,993.82
2022-11-24T03:18:09.425Z,993.79
2022-11-24T03:19:09.495Z,993.78
2022-11-24T03:20:09.409Z,993.81
2022-11-24T03:21:09.390Z,993.80
2022-11-24T03:22:09.406Z,993.78
2022-11-24T03:23:09.360Z,993.83
2022-11-24T03:24:09.341Z,993.86
2022-11-24T03:25:09.342Z,993.84
2022-11-24T03:26:09.374Z,993.84
2022-11-24T03:27:09.310Z,993.87
2022-11-24T03:28:09.292Z,993.87
2022-11-24T03:29:09.272Z,993.88
2022-11-24T03:30:09.270Z,993.88
2022-11-24T03:31:09.330Z,993.92
2022-11-24T03:32:09.251Z,993.84
2022-11-24T03:33:09.235Z,993.92
2022-11-24T03:34:09.239Z,993.91
2022-11-24T03:35:09.203Z,993.91
2022-11-24T03:36:09.227Z,993.91
2022-11-24T03:37:09.204Z,993.93
2022-11-24T03:38:09.170Z,993.89
2022-11-24T03:39:09.169Z,993.88
2022-11-24T03:40:09.149Z,993.91
2022-11-24T03:41:09.117Z,993.91
2022-11-24T03:42:09.139Z,993.87
2022-11-24T03:43:09.108Z,993.93
2022-11-24T03:44:09.098Z,993.93
2022-11-24T03:45:37.942Z,993.94
2022-11-24T03:46:10.086Z,993.95
2022-11-24T03:47:09.090Z,993.95
2022-11-24T03:48:09.056Z,993.96
2022-11-24T03:49:09.027Z,993.94
2022-11-24T03:50:09.032Z,993.99
2022-11-24T03:51:09.015Z,993.94
2022-11-24T03:52:09.017Z,993.94
2022-11-24T03:53:08.963Z,993.95
2022-11-24T03:54:08.955Z,993.94
2022-11-24T03:55:08.956Z,994.06
2022-11-24T03:56:08.944Z,994.03
2022-11-24T03:57:08.924Z,994.02
2022-11-24T03:58:08.914Z,994.04
2022-11-24T03:59:08.886Z,994.03
2022-11-24T04:00:08.887Z,994.01
2022-11-24T04:01:08.891Z,994.03
2022-11-24T04:02:08.948Z,994.04
2022-11-24T04:03:08.889Z,994.06
2022-11-24T04:04:08.865Z,994.06
2022-11-24T04:05:08.810Z,994.10
2022-11-24T04:06:08.800Z,994.11
2022-11-24T04:07:08.860Z,994.12
2022-11-24T04:08:08.778Z,994.16
2022-11-24T04:09:08.759Z,994.18
2022-11-24T04:10:08.752Z,994.21
2022-11-24T04:11:08.745Z,994.21
2022-11-24T04:12:08.743Z,994.23
2022-11-24T04:13:08.716Z,994.21
2022-11-24T04:14:13.400Z,994.24
2022-11-24T04:15:09.701Z,994.19
2022-11-24T04:16:08.725Z,994.18
2022-11-24T04:17:08.683Z,994.18
2022-11-24T04:18:08.654Z,994.28
2022-11-24T04:19:08.643Z,994.26
2022-11-24T04:20:08.630Z,994.29
2022-11-24T04:21:08.616Z,994.25
2022-11-24T04:22:08.655Z,994.29
2022-11-24T04:23:08.605Z,994.28
2022-11-24T04:24:08.595Z,994.30
2022-11-24T04:25:08.550Z,994.26
2022-11-24T04:26:08.556Z,994.30
2022-11-24T04:27:08.543Z,994.34
2022-11-24T04:28:08.546Z,994.30
2022-11-24T04:29:08.506Z,994.31
2022-11-24T04:30:08.499Z,994.35
2022-11-24T04:31:08.529Z,994.30
2022-11-24T04:32:08.499Z,994.39
2022-11-24T04:33:08.444Z,994.39
2022-11-24T04:34:08.456Z,994.39
2022-11-24T04:35:08.444Z,994.39
2022-11-24T04:36:08.416Z,994.38
2022-11-24T04:37:08.410Z,994.43
2022-11-24T04:38:08.384Z,994.41
2022-11-24T04:39:25.933Z,994.47
2022-11-24T04:40:09.381Z,994.48
2022-11-24T04:41:08.363Z,994.50
2022-11-24T04:42:08.374Z,994.54
2022-11-24T04:43:08.323Z,994.51
2022-11-24T04:44:08.312Z,994.50
2022-11-24T04:45:08.291Z,994.52
2022-11-24T04:46:08.303Z,994.54
2022-11-24T04:47:08.293Z,994.56
2022-11-24T04:48:08.250Z,994.55
2022-11-24T04:49:08.242Z,994.50
2022-11-24T04:50:08.223Z,994.55
2022-11-24T04:51:08.211Z,994.58
2022-11-24T04:52:08.210Z,994.58
2022-11-24T04:53:08.213Z,994.61
2022-11-24T04:54:08.172Z,994.59
2022-11-24T04:55:08.162Z,994.63
2022-11-24T04:56:08.151Z,994.60
2022-11-24T04:57:08.160Z,994.65
2022-11-24T04:58:08.129Z,994.66
2022-11-24T04:59:08.735Z,994.68
2022-11-24T05:00:08.107Z,994.70
2022-11-24T05:01:08.079Z,994.72
2022-11-24T05:02:08.126Z,994.73
2022-11-24T05:03:08.071Z,994.76
2022-11-24T05:04:08.095Z,994.79
2022-11-24T05:05:08.037Z,994.79
2022-11-24T05:06:08.019Z,994.76
2022-11-24T05:07:08.088Z,994.80
2022-11-24T05:08:07.989Z,994.80
2022-11-24T05:09:07.983Z,994.78
2022-11-24T05:10:07.970Z,994.81
2022-11-24T05:11:07.982Z,994.86
2022-11-24T05:12:07.958Z,994.84
2022-11-24T05:13:08.005Z,994.82
2022-11-24T05:14:07.918Z,994.85
2022-11-24T05:15:07.904Z,994.88
2022-11-24T05:16:07.948Z,994.88
2022-11-24T05:17:07.885Z,994.87
2022-11-24T05:18:07.864Z,994.88
2022-11-24T05:19:07.854Z,994.90
2022-11-24T05:20:07.837Z,994.90
2022-11-24T05:21:07.825Z,994.91
2022-11-24T05:22:07.835Z,994.92
2022-11-24T05:23:07.813Z,994.97
2022-11-24T05:24:07.783Z,994.96
2022-11-24T05:25:07.788Z,994.96
2022-11-24T05:26:07.761Z,994.98
2022-11-24T05:27:07.761Z,994.93
2022-11-24T05:28:07.722Z,994.98
2022-11-24T05:29:07.729Z,995.03
2022-11-24T05:30:07.709Z,995.01
2022-11-24T05:31:07.759Z,995.04
2022-11-24T05:32:07.710Z,995.00
2022-11-24T05:33:07.684Z,995.04
2022-11-24T05:34:07.668Z,995.02
2022-11-24T05:35:07.640Z,994.98
2022-11-24T05:36:07.621Z,994.94
2022-11-24T05:37:07.648Z,994.96
2022-11-24T05:38:07.602Z,994.97
2022-11-24T05:39:07.581Z,994.95
2022-11-24T05:40:07.579Z,994.95
2022-11-24T05:41:07.590Z,994.93
2022-11-24T05:42:07.549Z,994.95
2022-11-24T05:43:07.540Z,994.99
2022-11-24T05:44:07.519Z,995.03
2022-11-24T05:45:07.526Z,995.03
2022-11-24T05:46:07.511Z,995.03
2022-11-24T05:47:07.580Z,995.01
2022-11-24T05:48:07.460Z,995.03
2022-11-24T05:49:07.458Z,995.05
2022-11-24T05:50:07.456Z,995.03
2022-11-24T05:51:09.434Z,995.04
2022-11-24T05:52:07.427Z,995.04
2022-11-24T05:53:07.416Z,995.04
2022-11-24T05:54:07.388Z,995.06
2022-11-24T05:55:07.375Z,995.11
2022-11-24T05:56:07.365Z,995.07
2022-11-24T05:57:07.366Z,995.11
2022-11-24T05:58:07.335Z,995.11
2022-11-24T05:59:09.915Z,995.16
2022-11-24T06:00:07.314Z,995.15
2022-11-24T06:01:07.316Z,995.16
2022-11-24T06:02:07.401Z,995.17
2022-11-24T06:03:07.380Z,995.22
2022-11-24T06:04:07.263Z,995.19
2022-11-24T06:05:07.243Z,995.20
2022-11-24T06:06:07.240Z,995.20
2022-11-24T06:07:07.305Z,995.16
2022-11-24T06:08:07.201Z,995.23
2022-11-24T06:09:07.193Z,995.24
2022-11-24T06:10:07.187Z,995.20
2022-11-24T06:11:07.171Z,995.20
2022-11-24T06:12:07.198Z,995.18
2022-11-24T06:13:07.216Z,995.20
2022-11-24T06:14:11.137Z,995.23
2022-11-24T06:15:07.108Z,995.19
2022-11-24T06:16:07.140Z,995.25
2022-11-24T06:17:07.108Z,995.22
2022-11-24T06:18:07.072Z,995.24
2022-11-24T06:19:07.053Z,995.28
2022-11-24T06:20:07.053Z,995.34
2022-11-24T06:21:11.551Z,995.28
2022-11-24T06:22:07.049Z,995.33
2022-11-24T06:23:07.008Z,995.32
2022-11-24T06:24:06.990Z,995.34
2022-11-24T06:25:06.978Z,995.39
2022-11-24T06:26:07.035Z,995.37
2022-11-24T06:27:06.960Z,995.36
2022-11-24T06:28:06.946Z,995.37
2022-11-24T06:29:06.930Z,995.43
2022-11-24T06:30:06.923Z,995.38
2022-11-24T06:31:06.908Z,995.39
2022-11-24T06:32:06.989Z,995.46
2022-11-24T06:33:06.876Z,995.40
2022-11-24T06:34:06.877Z,995.38
2022-11-24T06:35:06.848Z,995.45
2022-11-24T06:36:06.836Z,995.40
2022-11-24T06:37:06.842Z,995.38
2022-11-24T06:38:06.804Z,995.41
2022-11-24T06:39:06.802Z,995.48
2022-11-24T06:40:06.786Z,995.45
2022-11-24T06:41:06.767Z,995.46
2022-11-24T06:42:06.767Z,995.41
2022-11-24T06:43:06.746Z,995.40
2022-11-24T06:44:06.756Z,995.39
2022-11-24T06:45:09.302Z,995.43
2022-11-24T06:46:06.780Z,995.44
2022-11-24T06:47:06.714Z,995.43
2022-11-24T06:48:06.691Z,995.48
2022-11-24T06:49:06.664Z,995.42
2022-11-24T06:50:06.660Z,995.46
2022-11-24T06:51:06.641Z,995.44
2022-11-24T06:52:06.632Z,995.47
2022-11-24T06:53:06.635Z,995.50
2022-11-24T06:54:06.611Z,995.49
2022-11-24T06:55:06.594Z,995.53
2022-11-24T06:56:09.439Z,995.53
2022-11-24T06:57:07.598Z,995.55
2022-11-24T06:58:53.771Z,995.49
2022-11-24T06:59:06.532Z,995.46
2022-11-24T07:00:06.585Z,995.51
2022-11-24T07:01:06.570Z,995.54
2022-11-24T07:02:06.500Z,995.53
2022-11-24T07:03:06.502Z,995.54
2022-11-24T07:04:06.471Z,995.62
2022-11-24T07:05:06.479Z,995.60
2022-11-24T07:06:06.448Z,995.61
2022-11-24T07:07:06.557Z,995.58
2022-11-24T07:08:06.432Z,995.55
2022-11-24T07:09:06.417Z,995.54
2022-11-24T07:10:06.389Z,995.54
2022-11-24T07:11:06.377Z,995.52
2022-11-24T07:12:06.377Z,995.51
2022-11-24T07:13:06.350Z,995.50
2022-11-24T07:14:06.358Z,995.52
2022-11-24T07:15:06.338Z,995.54
2022-11-24T07:16:06.335Z,995.53
2022-11-24T07:17:06.311Z,995.55
2022-11-24T07:18:06.287Z,995.58
2022-11-24T07:19:06.288Z,995.60
2022-11-24T07:20:06.277Z,995.58
2022-11-24T07:21:06.286Z,995.59
2022-11-24T07:22:07.450Z,995.60
2022-11-24T07:23:06.235Z,995.63
2022-11-24T07:24:06.209Z,995.63
2022-11-24T07:25:06.205Z,995.66
2022-11-24T07:26:07.085Z,995.66
2022-11-24T07:27:06.177Z,995.67
2022-11-24T07:28:06.155Z,995.64
2022-11-24T07:29:06.161Z,995.68
2022-11-24T07:30:06.137Z,995.70
2022-11-24T07:31:06.118Z,995.65
2022-11-24T07:32:06.141Z,995.69
2022-11-24T07:33:06.122Z,995.72
2022-11-24T07:34:06.074Z,995.71
2022-11-24T07:35:06.093Z,995.74
2022-11-24T07:36:06.046Z,995.74
2022-11-24T07:37:06.064Z,995.76
2022-11-24T07:38:06.062Z,995.77
2022-11-24T07:39:06.014Z,995.79
2022-11-24T07:40:06.041Z,995.80
2022-11-24T07:41:05.985Z,995.82
2022-11-24T07:42:06.003Z,995.79
2022-11-24T07:43:05.961Z,995.78
2022-11-24T07:44:05.943Z,995.81
2022-11-24T07:45:05.932Z,995.81
2022-11-24T07:46:05.961Z,995.85
2022-11-24T07:47:05.928Z,995.86
2022-11-24T07:48:05.907Z,995.83
2022-11-24T07:49:05.882Z,995.86
2022-11-24T07:50:05.860Z,995.88
2022-11-24T07:51:05.873Z,995.92
2022-11-24T07:52:05.865Z,995.90
2022-11-24T07:53:05.839Z,995.95
2022-11-24T07:54:05.811Z,995.98
2022-11-24T07:55:05.808Z,995.99
2022-11-24T07:56:05.786Z,996.03
2022-11-24T07:57:05.803Z,995.99
2022-11-24T07:58:05.768Z,996.05
2022-11-24T07:59:05.749Z,996.00
2022-11-24T08:00:05.752Z,996.02
2022-11-24T08:01:05.761Z,995.96
2022-11-24T08:02:05.809Z,995.97
2022-11-24T08:03:05.699Z,995.98
2022-11-24T08:04:05.722Z,996.02
2022-11-24T08:05:05.676Z,996.03
2022-11-24T08:07:06.748Z,996.05
2022-11-24T08:08:05.650Z,996.07
2022-11-24T08:09:05.617Z,996.07
2022-11-24T08:10:05.606Z,996.05
2022-11-24T08:11:05.636Z,996.05
2022-11-24T08:12:05.641Z,996.06
2022-11-24T08:13:05.597Z,996.05
2022-11-24T08:14:05.559Z,996.08
2022-11-24T08:15:10.963Z,996.02
2022-11-24T08:16:06.625Z,996.08
2022-11-24T08:17:05.639Z,996.09
2022-11-24T08:18:05.516Z,996.08
2022-11-24T08:19:05.509Z,996.10
2022-11-24T08:20:05.476Z,996.09
2022-11-24T08:21:05.464Z,996.08
2022-11-24T08:22:05.473Z,996.11
2022-11-24T08:23:05.453Z,996.05
2022-11-24T08:24:05.427Z,996.11
2022-11-24T08:25:05.420Z,996.10
2022-11-24T08:26:05.406Z,996.11
2022-11-24T08:27:05.405Z,996.16
2022-11-24T08:28:05.383Z,996.14
2022-11-24T08:29:05.402Z,996.14
2022-11-24T08:30:05.364Z,996.09
2022-11-24T08:31:05.342Z,996.12
2022-11-24T08:32:05.359Z,996.15
2022-11-24T08:33:05.315Z,996.15
2022-11-24T08:34:05.317Z,996.11
2022-11-24T08:35:20.451Z,996.16
2022-11-24T08:36:06.268Z,996.17
2022-11-24T08:37:05.302Z,996.18
2022-11-24T08:38:05.267Z,996.17
2022-11-24T08:39:05.254Z,996.24
2022-11-24T08:40:05.245Z,996.21
2022-11-24T08:41:05.214Z,996.19
2022-11-24T08:42:05.211Z,996.24
2022-11-24T08:43:05.182Z,996.22
2022-11-24T08:44:05.231Z,996.30
2022-11-24T08:45:19.979Z,996.25
2022-11-24T08:46:06.256Z,996.31
2022-11-24T08:47:05.164Z,996.26
2022-11-24T08:48:05.121Z,996.28
2022-11-24T08:49:05.109Z,996.27
2022-11-24T08:50:05.081Z,996.27
2022-11-24T08:51:20.568Z,996.27
2022-11-24T08:52:05.070Z,996.26
2022-11-24T08:53:05.047Z,996.28
2022-11-24T08:54:05.038Z,996.27
2022-11-24T08:55:05.017Z,996.28
2022-11-24T08:56:05.009Z,996.26
2022-11-24T08:57:05.030Z,996.28
2022-11-24T08:58:04.997Z,996.31
2022-11-24T08:59:05.044Z,996.28
2022-11-24T09:00:04.978Z,996.31
2022-11-24T09:01:05.034Z,996.26
2022-11-24T09:02:05.049Z,996.30
2022-11-24T09:03:04.918Z,996.27
2022-11-24T09:04:04.984Z,996.28
2022-11-24T09:05:07.249Z,996.30
2022-11-24T09:06:05.905Z,996.29
2022-11-24T09:07:04.888Z,996.27
2022-11-24T09:08:04.857Z,996.27
2022-11-24T09:09:04.857Z,996.30
2022-11-24T09:10:04.826Z,996.35
2022-11-24T09:11:04.822Z,996.31
2022-11-24T09:12:06.584Z,996.34
2022-11-24T09:13:05.785Z,996.37
2022-11-24T09:14:04.820Z,996.37
2022-11-24T09:15:04.753Z,996.39
2022-11-24T09:16:04.764Z,996.42
2022-11-24T09:17:04.800Z,996.41
2022-11-24T09:18:04.734Z,996.39
2022-11-24T09:19:04.706Z,996.40
2022-11-24T09:20:04.705Z,996.44
2022-11-24T09:21:04.674Z,996.44
2022-11-24T09:22:04.675Z,996.42
2022-11-24T09:23:04.656Z,996.42
2022-11-24T09:24:04.632Z,996.41
2022-11-24T09:25:04.613Z,996.46
2022-11-24T09:26:04.603Z,996.45
2022-11-24T09:27:04.611Z,996.43
2022-11-24T09:28:04.581Z,996.43
2022-11-24T09:29:04.598Z,996.42
2022-11-24T09:30:04.566Z,996.45
2022-11-24T09:31:04.656Z,996.43
2022-11-24T09:32:06.925Z,996.44
2022-11-24T09:33:04.538Z,996.44
2022-11-24T09:34:04.511Z,996.47
2022-11-24T09:35:04.489Z,996.47
2022-11-24T09:36:04.489Z,996.48
2022-11-24T09:37:04.470Z,996.48
2022-11-24T09:38:04.480Z,996.48
2022-11-24T09:39:04.447Z,996.52
2022-11-24T09:40:04.409Z,996.54
2022-11-24T09:41:04.430Z,996.52
2022-11-24T09:42:04.423Z,996.51
2022-11-24T09:43:04.388Z,996.50
2022-11-24T09:44:04.377Z,996.52
2022-11-24T09:45:04.376Z,996.51
2022-11-24T09:46:05.880Z,996.52
2022-11-24T09:47:05.261Z,996.55
2022-11-24T09:48:04.319Z,996.52
2022-11-24T09:49:04.297Z,996.48
2022-11-24T09:50:04.288Z,996.50
2022-11-24T09:51:04.305Z,996.54
2022-11-24T09:52:04.269Z,996.51
2022-11-24T09:53:04.306Z,996.54
2022-11-24T09:54:04.239Z,996.52
2022-11-24T09:55:04.228Z,996.52
2022-11-24T09:56:04.226Z,996.49
2022-11-24T09:57:04.243Z,996.48
2022-11-24T09:58:04.185Z,996.52
2022-11-24T09:59:04.178Z,996.50
2022-11-24T10:00:04.155Z,996.49
2022-11-24T10:01:04.197Z,996.51
2022-11-24T10:02:04.226Z,996.53
2022-11-24T10:03:04.144Z,996.55
2022-11-24T10:04:06.335Z,996.54
2022-11-24T10:05:04.141Z,996.59
2022-11-24T10:06:04.080Z,996.51
2022-11-24T10:07:04.088Z,996.54
2022-11-24T10:08:04.065Z,996.56
2022-11-24T10:09:04.082Z,996.58
2022-11-24T10:10:04.035Z,996.58
2022-11-24T10:11:04.089Z,996.60
2022-11-24T10:12:04.035Z,996.57
2022-11-24T10:13:03.987Z,996.55
2022-11-24T10:14:03.963Z,996.57
2022-11-24T10:15:03.978Z,996.59
2022-11-24T10:16:03.983Z,996.57
2022-11-24T10:17:03.953Z,996.59
2022-11-24T10:18:03.923Z,996.60
2022-11-24T10:19:03.894Z,996.60
2022-11-24T10:20:03.899Z,996.66
2022-11-24T10:21:03.914Z,996.66
2022-11-24T10:22:03.897Z,996.64
2022-11-24T10:23:03.876Z,996.66
2022-11-24T10:24:03.847Z,996.63
2022-11-24T10:25:03.834Z,996.68
2022-11-24T10:26:03.840Z,996.61
2022-11-24T10:27:03.818Z,996.66
2022-11-24T10:28:03.781Z,996.63
2022-11-24T10:29:03.803Z,996.65
2022-11-24T10:30:03.772Z,996.67
2022-11-24T10:31:03.764Z,996.70
2022-11-24T10:32:03.795Z,996.68
2022-11-24T10:33:03.724Z,996.66
2022-11-24T10:34:03.702Z,996.66
2022-11-24T10:35:03.709Z,996.67
2022-11-24T10:36:03.700Z,996.72
2022-11-24T10:37:03.692Z,996.70
2022-11-24T10:38:03.659Z,996.69
2022-11-24T10:39:03.649Z,996.71
2022-11-24T10:40:03.632Z,996.67
2022-11-24T10:41:03.624Z,996.71
2022-11-24T10:42:03.608Z,996.72
2022-11-24T10:43:03.598Z,996.72
2022-11-24T10:44:03.577Z,996.73
2022-11-24T10:45:03.580Z,996.71
2022-11-24T10:46:03.625Z,996.70
2022-11-24T10:47:03.560Z,996.70
2022-11-24T10:48:03.527Z,996.69
2022-11-24T10:49:03.557Z,996.67
2022-11-24T10:50:03.527Z,996.68
2022-11-24T10:51:03.489Z,996.67
2022-11-24T10:52:03.502Z,996.62
2022-11-24T10:53:03.476Z,996.60
2022-11-24T10:54:03.441Z,996.62
2022-11-24T10:55:03.456Z,996.60
2022-11-24T10:56:03.421Z,996.59
2022-11-24T10:57:03.418Z,996.61
2022-11-24T10:58:03.378Z,996.57
2022-11-24T10:59:03.380Z,996.55
2022-11-24T11:00:03.368Z,996.65
2022-11-24T11:01:03.462Z,996.62
2022-11-24T11:02:03.428Z,996.63
2022-11-24T11:03:03.433Z,996.62
2022-11-24T11:04:03.458Z,996.56
2022-11-24T11:05:03.287Z,996.60
2022-11-24T11:06:03.309Z,996.57
2022-11-24T11:07:03.279Z,996.56
2022-11-24T11:08:05.656Z,996.54
2022-11-24T11:09:03.258Z,996.58
2022-11-24T11:10:03.231Z,996.59
2022-11-24T11:11:03.230Z,996.55
2022-11-24T11:12:27.776Z,996.55
2022-11-24T11:13:04.202Z,996.56
2022-11-24T11:14:04.622Z,996.55
2022-11-24T11:15:03.174Z,996.57
2022-11-24T11:16:03.213Z,996.57
2022-11-24T11:17:03.161Z,996.57
2022-11-24T11:18:03.136Z,996.60
2022-11-24T11:19:11.942Z,996.59
2022-11-24T11:20:04.508Z,996.60
2022-11-24T11:21:03.097Z,996.60
2022-11-24T11:22:03.085Z,996.57
2022-11-24T11:23:03.085Z,996.59
2022-11-24T11:24:03.038Z,996.61
2022-11-24T11:25:03.033Z,996.58
2022-11-24T11:26:03.011Z,996.62
2022-11-24T11:27:03.068Z,996.59
2022-11-24T11:28:07.181Z,996.59
2022-11-24T11:31:21.403Z,996.55
2022-11-24T11:34:06.149Z,996.56
2022-11-24T11:35:02.893Z,996.61
2022-11-24T11:36:02.916Z,996.62
2022-11-24T11:37:02.884Z,996.64
2022-11-24T11:38:02.847Z,996.59
2022-11-24T11:39:02.866Z,996.62
2022-11-24T11:40:02.825Z,996.60
2022-11-24T11:41:02.885Z,996.58
2022-11-24T11:42:02.856Z,996.59
2022-11-24T11:43:03.495Z,996.57
2022-11-24T11:44:02.773Z,996.62
2022-11-24T11:45:02.788Z,996.60
2022-11-24T11:46:02.843Z,996.66
2022-11-24T11:47:02.805Z,996.68
2022-11-24T11:48:02.731Z,996.68
2022-11-24T11:49:02.722Z,996.70
2022-11-24T11:50:02.695Z,996.74
2022-11-24T11:52:03.673Z,996.68
2022-11-24T11:53:02.681Z,996.73
2022-11-24T11:54:02.725Z,996.71
2022-11-24T11:55:02.655Z,996.74
2022-11-24T11:56:02.606Z,996.74
2022-11-24T11:57:02.630Z,996.68
2022-11-24T11:58:02.583Z,996.73
2022-11-24T11:59:02.596Z,996.79
2022-11-24T12:00:02.556Z,996.76
2022-11-24T12:01:02.552Z,996.79
2022-11-24T12:02:02.560Z,996.80
2022-11-24T12:03:02.625Z,996.83
2022-11-24T12:04:02.592Z,996.80
2022-11-24T12:05:02.493Z,996.84
2022-11-24T12:06:02.474Z,996.72
2022-11-24T12:07:02.484Z,996.81
2022-11-24T12:08:09.271Z,996.81
2022-11-24T12:09:19.720Z,996.83
2022-11-24T12:10:03.421Z,996.79
2022-11-24T12:11:02.437Z,996.81
2022-11-24T12:12:02.480Z,996.89
2022-11-24T12:13:02.381Z,996.81
2022-11-24T12:14:02.369Z,996.79
2022-11-24T12:15:07.328Z,996.83
2022-11-24T12:16:03.374Z,996.81
2022-11-24T12:17:02.366Z,996.82
2022-11-24T12:18:02.344Z,996.82
2022-11-24T12:19:02.302Z,996.86
2022-11-24T12:20:02.288Z,996.90
2022-11-24T12:21:02.281Z,996.88
2022-11-24T12:22:02.268Z,996.93
2022-11-24T12:23:02.250Z,996.93
2022-11-24T12:24:02.281Z,996.98
2022-11-24T12:25:02.292Z,997.01
2022-11-24T12:26:02.210Z,996.96
2022-11-24T12:27:02.218Z,996.99
2022-11-24T12:28:02.188Z,996.99
2022-11-24T12:29:02.186Z,996.96
2022-11-24T12:30:02.159Z,996.96
2022-11-24T12:31:02.164Z,996.97
2022-11-24T12:32:02.147Z,997.00
2022-11-24T12:33:02.110Z,997.01
2022-11-24T12:34:02.103Z,996.96